sensor_id;sensor_type;location;lat;lon;timestamp;P1;P2;P0
82667;PMS5003;72691;51.374;-0.176;2024-01-06T00:02:08;23;20;
82667;PMS5003;72691;51.374;-0.176;2024-01-06T00:04:34;23;22;
82667;PMS5003;72691;51.374;-0.176;2024-01-06T00:06:59;26;25;
82667;PMS5003;72691;51.374;-0.176;2024-01-06T00:09:24;22;21;
82667;PMS5003;72691;51.374;-0.176;2024-01-06T00:11:50;21;21;
82667;PMS5003;72691;51.374;-0.176;2024-01-06T00:14:15;19;17;
82667;PMS5003;72691;51.374;-0.176;2024-01-06T00:16:40;19;19;
82667;PMS5003;72691;51.374;-0.176;2024-01-06T00:19:06;19;19;
82667;PMS5003;72691;51.374;-0.176;2024-01-06T00:21:30;18;18;
82667;PMS5003;72691;51.374;-0.176;2024-01-06T00:23:56;25;23;
82667;PMS5003;72691;51.374;-0.176;2024-01-06T00:26:22;27;27;
82667;PMS5003;72691;51.374;-0.176;2024-01-06T00:28:47;20;19;
82667;PMS5003;72691;51.374;-0.176;2024-01-06T00:31:13;21;19;
82667;PMS5003;72691;51.374;-0.176;2024-01-06T00:33:37;21;21;
82667;PMS5003;72691;51.374;-0.176;2024-01-06T00:36:03;17;16;
82667;PMS5003;72691;51.374;-0.176;2024-01-06T00:38:28;17;17;
82667;PMS5003;72691;51.374;-0.176;2024-01-06T00:40:53;19;18;
82667;PMS5003;72691;51.374;-0.176;2024-01-06T00:43:18;18;16;
82667;PMS5003;72691;51.374;-0.176;2024-01-06T00:45:44;24;22;
82667;PMS5003;72691;51.374;-0.176;2024-01-06T00:48:10;21;20;
82667;PMS5003;72691;51.374;-0.176;2024-01-06T00:50:35;20;18;
82667;PMS5003;72691;51.374;-0.176;2024-01-06T00:53:01;21;21;
82667;PMS5003;72691;51.374;-0.176;2024-01-06T00:55:26;17;16;
82667;PMS5003;72691;51.374;-0.176;2024-01-06T00:57:52;18;17;
82667;PMS5003;72691;51.374;-0.176;2024-01-06T01:00:17;23;19;
82667;PMS5003;72691;51.374;-0.176;2024-01-06T01:02:42;19;19;
82667;PMS5003;72691;51.374;-0.176;2024-01-06T01:05:08;21;21;
82667;PMS5003;72691;51.374;-0.176;2024-01-06T01:07:33;16;16;
82667;PMS5003;72691;51.374;-0.176;2024-01-06T01:09:59;19;18;
82667;PMS5003;72691;51.374;-0.176;2024-01-06T01:12:24;25;24;
82667;PMS5003;72691;51.374;-0.176;2024-01-06T01:14:50;19;18;
82667;PMS5003;72691;51.374;-0.176;2024-01-06T01:17:15;25;23;
82667;PMS5003;72691;51.374;-0.176;2024-01-06T01:19:41;23;22;
82667;PMS5003;72691;51.374;-0.176;2024-01-06T01:22:06;24;21;
82667;PMS5003;72691;51.374;-0.176;2024-01-06T01:24:31;31;24;
82667;PMS5003;72691;51.374;-0.176;2024-01-06T01:26:57;27;27;
82667;PMS5003;72691;51.374;-0.176;2024-01-06T01:29:23;31;31;
82667;PMS5003;72691;51.374;-0.176;2024-01-06T01:31:48;27;25;
82667;PMS5003;72691;51.374;-0.176;2024-01-06T01:34:13;29;28;
82667;PMS5003;72691;51.374;-0.176;2024-01-06T01:36:39;27;27;
82667;PMS5003;72691;51.374;-0.176;2024-01-06T01:39:03;28;25;
82667;PMS5003;72691;51.374;-0.176;2024-01-06T01:41:29;32;29;
82667;PMS5003;72691;51.374;-0.176;2024-01-06T01:43:54;26;26;
82667;PMS5003;72691;51.374;-0.176;2024-01-06T01:46:20;28;26;
82667;PMS5003;72691;51.374;-0.176;2024-01-06T01:48:45;28;27;
82667;PMS5003;72691;51.374;-0.176;2024-01-06T01:51:11;32;32;
82667;PMS5003;72691;51.374;-0.176;2024-01-06T01:53:36;27;25;
82667;PMS5003;72691;51.374;-0.176;2024-01-06T01:56:02;27;25;
82667;PMS5003;72691;51.374;-0.176;2024-01-06T01:58:27;35;31;
82667;PMS5003;72691;51.374;-0.176;2024-01-06T02:00:53;37;34;
82667;PMS5003;72691;51.374;-0.176;2024-01-06T02:03:18;29;27;
82667;PMS5003;72691;51.374;-0.176;2024-01-06T02:05:44;30;29;
82667;PMS5003;72691;51.374;-0.176;2024-01-06T02:08:09;30;30;
82667;PMS5003;72691;51.374;-0.176;2024-01-06T02:10:35;29;29;
82667;PMS5003;72691;51.374;-0.176;2024-01-06T02:13:09;30;28;
82667;PMS5003;72691;51.374;-0.176;2024-01-06T02:15:25;32;30;
82667;PMS5003;72691;51.374;-0.176;2024-01-06T02:17:51;33;29;
82667;PMS5003;72691;51.374;-0.176;2024-01-06T02:20:17;32;29;
82667;PMS5003;72691;51.374;-0.176;2024-01-06T02:22:41;36;35;
82667;PMS5003;72691;51.374;-0.176;2024-01-06T02:25:07;31;27;
82667;PMS5003;72691;51.374;-0.176;2024-01-06T02:27:32;33;30;
82667;PMS5003;72691;51.374;-0.176;2024-01-06T02:29:58;27;26;
82667;PMS5003;72691;51.374;-0.176;2024-01-06T02:32:23;27;26;
82667;PMS5003;72691;51.374;-0.176;2024-01-06T02:34:48;33;29;
82667;PMS5003;72691;51.374;-0.176;2024-01-06T02:37:14;29;28;
82667;PMS5003;72691;51.374;-0.176;2024-01-06T02:39:39;34;30;
82667;PMS5003;72691;51.374;-0.176;2024-01-06T02:42:05;35;33;
82667;PMS5003;72691;51.374;-0.176;2024-01-06T02:44:30;33;29;
82667;PMS5003;72691;51.374;-0.176;2024-01-06T02:46:55;35;33;
82667;PMS5003;72691;51.374;-0.176;2024-01-06T02:49:21;33;30;
82667;PMS5003;72691;51.374;-0.176;2024-01-06T02:51:46;35;31;
82667;PMS5003;72691;51.374;-0.176;2024-01-06T02:54:11;37;34;
82667;PMS5003;72691;51.374;-0.176;2024-01-06T02:56:37;36;32;
82667;PMS5003;72691;51.374;-0.176;2024-01-06T02:59:03;32;31;
82667;PMS5003;72691;51.374;-0.176;2024-01-06T03:01:29;34;33;
82667;PMS5003;72691;51.374;-0.176;2024-01-06T03:03:54;40;38;
82667;PMS5003;72691;51.374;-0.176;2024-01-06T03:06:20;40;39;
82667;PMS5003;72691;51.374;-0.176;2024-01-06T03:08:45;41;37;
82667;PMS5003;72691;51.374;-0.176;2024-01-06T03:11:10;43;40;
82667;PMS5003;72691;51.374;-0.176;2024-01-06T03:13:36;37;34;
82667;PMS5003;72691;51.374;-0.176;2024-01-06T03:16:03;33;32;
82667;PMS5003;72691;51.374;-0.176;2024-01-06T03:18:27;33;33;
82667;PMS5003;72691;51.374;-0.176;2024-01-06T03:20:52;38;37;
82667;PMS5003;72691;51.374;-0.176;2024-01-06T03:23:17;40;39;
82667;PMS5003;72691;51.374;-0.176;2024-01-06T03:25:43;36;33;
82667;PMS5003;72691;51.374;-0.176;2024-01-06T03:28:08;37;36;
82667;PMS5003;72691;51.374;-0.176;2024-01-06T03:30:34;40;38;
82667;PMS5003;72691;51.374;-0.176;2024-01-06T03:33:00;48;43;
82667;PMS5003;72691;51.374;-0.176;2024-01-06T03:35:26;33;31;
82667;PMS5003;72691;51.374;-0.176;2024-01-06T03:37:50;33;33;
82667;PMS5003;72691;51.374;-0.176;2024-01-06T03:40:16;40;40;
82667;PMS5003;72691;51.374;-0.176;2024-01-06T03:42:42;42;39;
82667;PMS5003;72691;51.374;-0.176;2024-01-06T03:45:07;41;38;
82667;PMS5003;72691;51.374;-0.176;2024-01-06T03:47:32;35;35;
82667;PMS5003;72691;51.374;-0.176;2024-01-06T03:49:59;38;37;
82667;PMS5003;72691;51.374;-0.176;2024-01-06T03:52:23;39;37;
82667;PMS5003;72691;51.374;-0.176;2024-01-06T03:54:49;38;37;
82667;PMS5003;72691;51.374;-0.176;2024-01-06T03:57:15;37;33;
82667;PMS5003;72691;51.374;-0.176;2024-01-06T03:59:41;42;38;
82667;PMS5003;72691;51.374;-0.176;2024-01-06T04:02:05;38;37;
82667;PMS5003;72691;51.374;-0.176;2024-01-06T04:04:30;35;33;
82667;PMS5003;72691;51.374;-0.176;2024-01-06T04:06:56;36;33;
82667;PMS5003;72691;51.374;-0.176;2024-01-06T04:09:22;30;30;
82667;PMS5003;72691;51.374;-0.176;2024-01-06T04:11:47;30;27;
82667;PMS5003;72691;51.374;-0.176;2024-01-06T04:14:12;28;25;
82667;PMS5003;72691;51.374;-0.176;2024-01-06T04:16:38;29;26;
82667;PMS5003;72691;51.374;-0.176;2024-01-06T04:19:03;21;20;
82667;PMS5003;72691;51.374;-0.176;2024-01-06T04:21:29;20;20;
82667;PMS5003;72691;51.374;-0.176;2024-01-06T04:23:54;17;16;
82667;PMS5003;72691;51.374;-0.176;2024-01-06T04:26:20;24;21;
82667;PMS5003;72691;51.374;-0.176;2024-01-06T04:28:45;17;15;
82667;PMS5003;72691;51.374;-0.176;2024-01-06T04:31:11;18;16;
82667;PMS5003;72691;51.374;-0.176;2024-01-06T04:33:37;12;12;
82667;PMS5003;72691;51.374;-0.176;2024-01-06T04:36:02;12;10;
82667;PMS5003;72691;51.374;-0.176;2024-01-06T04:38:27;7;7;
82667;PMS5003;72691;51.374;-0.176;2024-01-06T04:40:53;8;7;
82667;PMS5003;72691;51.374;-0.176;2024-01-06T04:43:19;8;7;
82667;PMS5003;72691;51.374;-0.176;2024-01-06T04:45:44;12;10;
82667;PMS5003;72691;51.374;-0.176;2024-01-06T04:48:09;9;8;
82667;PMS5003;72691;51.374;-0.176;2024-01-06T04:50:36;8;8;
82667;PMS5003;72691;51.374;-0.176;2024-01-06T04:53:00;10;10;
82667;PMS5003;72691;51.374;-0.176;2024-01-06T04:55:26;8;7;
82667;PMS5003;72691;51.374;-0.176;2024-01-06T04:57:51;11;10;
82667;PMS5003;72691;51.374;-0.176;2024-01-06T05:00:16;8;7;
82667;PMS5003;72691;51.374;-0.176;2024-01-06T05:02:42;10;10;
82667;PMS5003;72691;51.374;-0.176;2024-01-06T05:05:07;10;10;
82667;PMS5003;72691;51.374;-0.176;2024-01-06T05:07:32;8;8;
82667;PMS5003;72691;51.374;-0.176;2024-01-06T05:09:59;10;10;
82667;PMS5003;72691;51.374;-0.176;2024-01-06T05:12:23;11;9;
82667;PMS5003;72691;51.374;-0.176;2024-01-06T05:14:49;9;9;
82667;PMS5003;72691;51.374;-0.176;2024-01-06T05:17:15;8;8;
82667;PMS5003;72691;51.374;-0.176;2024-01-06T05:19:40;8;8;
82667;PMS5003;72691;51.374;-0.176;2024-01-06T05:22:05;11;9;
82667;PMS5003;72691;51.374;-0.176;2024-01-06T05:24:31;8;8;
82667;PMS5003;72691;51.374;-0.176;2024-01-06T05:26:56;10;9;
82667;PMS5003;72691;51.374;-0.176;2024-01-06T05:29:21;7;7;
82667;PMS5003;72691;51.374;-0.176;2024-01-06T05:31:47;9;8;
82667;PMS5003;72691;51.374;-0.176;2024-01-06T05:34:13;9;9;
82667;PMS5003;72691;51.374;-0.176;2024-01-06T05:36:38;10;10;
82667;PMS5003;72691;51.374;-0.176;2024-01-06T05:39:03;7;7;
82667;PMS5003;72691;51.374;-0.176;2024-01-06T05:41:28;8;8;
82667;PMS5003;72691;51.374;-0.176;2024-01-06T05:43:54;10;9;
82667;PMS5003;72691;51.374;-0.176;2024-01-06T05:46:21;8;8;
82667;PMS5003;72691;51.374;-0.176;2024-01-06T05:48:45;7;7;
82667;PMS5003;72691;51.374;-0.176;2024-01-06T05:51:10;8;8;
82667;PMS5003;72691;51.374;-0.176;2024-01-06T05:53:36;5;5;
82667;PMS5003;72691;51.374;-0.176;2024-01-06T05:56:01;5;5;
82667;PMS5003;72691;51.374;-0.176;2024-01-06T05:58:27;8;8;
82667;PMS5003;72691;51.374;-0.176;2024-01-06T06:00:52;4;4;
82667;PMS5003;72691;51.374;-0.176;2024-01-06T06:03:18;8;8;
82667;PMS5003;72691;51.374;-0.176;2024-01-06T06:05:43;7;7;
82667;PMS5003;72691;51.374;-0.176;2024-01-06T06:08:08;10;9;
82667;PMS5003;72691;51.374;-0.176;2024-01-06T06:10:34;7;5;
82667;PMS5003;72691;51.374;-0.176;2024-01-06T06:12:59;4;4;
82667;PMS5003;72691;51.374;-0.176;2024-01-06T06:15:24;7;7;
82667;PMS5003;72691;51.374;-0.176;2024-01-06T06:17:50;4;4;
82667;PMS5003;72691;51.374;-0.176;2024-01-06T06:20:15;7;5;
82667;PMS5003;72691;51.374;-0.176;2024-01-06T06:22:41;5;5;
82667;PMS5003;72691;51.374;-0.176;2024-01-06T06:25:07;7;7;
82667;PMS5003;72691;51.374;-0.176;2024-01-06T06:27:32;5;5;
82667;PMS5003;72691;51.374;-0.176;2024-01-06T06:29:57;7;7;
82667;PMS5003;72691;51.374;-0.176;2024-01-06T06:32:22;4;4;
82667;PMS5003;72691;51.374;-0.176;2024-01-06T06:34:48;5;5;
82667;PMS5003;72691;51.374;-0.176;2024-01-06T06:37:14;8;8;
82667;PMS5003;72691;51.374;-0.176;2024-01-06T06:39:39;7;7;
82667;PMS5003;72691;51.374;-0.176;2024-01-06T06:42:04;5;5;
82667;PMS5003;72691;51.374;-0.176;2024-01-06T06:44:30;7;7;
82667;PMS5003;72691;51.374;-0.176;2024-01-06T06:46:55;4;4;
82667;PMS5003;72691;51.374;-0.176;2024-01-06T06:49:20;4;4;
82667;PMS5003;72691;51.374;-0.176;2024-01-06T06:51:46;7;7;
82667;PMS5003;72691;51.374;-0.176;2024-01-06T06:54:11;7;7;
82667;PMS5003;72691;51.374;-0.176;2024-01-06T06:56:37;8;8;
82667;PMS5003;72691;51.374;-0.176;2024-01-06T06:59:02;4;4;
82667;PMS5003;72691;51.374;-0.176;2024-01-06T07:01:28;7;7;
82667;PMS5003;72691;51.374;-0.176;2024-01-06T07:03:53;8;7;
82667;PMS5003;72691;51.374;-0.176;2024-01-06T07:06:19;5;5;
82667;PMS5003;72691;51.374;-0.176;2024-01-06T07:08:44;8;8;
82667;PMS5003;72691;51.374;-0.176;2024-01-06T07:11:10;5;5;
82667;PMS5003;72691;51.374;-0.176;2024-01-06T07:13:35;8;8;
82667;PMS5003;72691;51.374;-0.176;2024-01-06T07:16:00;7;7;
82667;PMS5003;72691;51.374;-0.176;2024-01-06T07:18:26;5;5;
82667;PMS5003;72691;51.374;-0.176;2024-01-06T07:20:51;5;5;
82667;PMS5003;72691;51.374;-0.176;2024-01-06T07:23:17;8;7;
82667;PMS5003;72691;51.374;-0.176;2024-01-06T07:25:42;8;8;
82667;PMS5003;72691;51.374;-0.176;2024-01-06T07:28:08;7;7;
82667;PMS5003;72691;51.374;-0.176;2024-01-06T07:30:34;10;9;
82667;PMS5003;72691;51.374;-0.176;2024-01-06T07:32:59;7;7;
82667;PMS5003;72691;51.374;-0.176;2024-01-06T07:35:24;5;5;
82667;PMS5003;72691;51.374;-0.176;2024-01-06T07:37:50;7;7;
82667;PMS5003;72691;51.374;-0.176;2024-01-06T07:40:15;6;6;
82667;PMS5003;72691;51.374;-0.176;2024-01-06T07:42:41;7;7;
82667;PMS5003;72691;51.374;-0.176;2024-01-06T07:45:06;4;4;
82667;PMS5003;72691;51.374;-0.176;2024-01-06T07:47:32;5;5;
82667;PMS5003;72691;51.374;-0.176;2024-01-06T07:49:57;9;9;
82667;PMS5003;72691;51.374;-0.176;2024-01-06T07:52:22;6;6;
82667;PMS5003;72691;51.374;-0.176;2024-01-06T07:54:48;6;6;
82667;PMS5003;72691;51.374;-0.176;2024-01-06T07:57:13;8;7;
82667;PMS5003;72691;51.374;-0.176;2024-01-06T07:59:39;8;7;
82667;PMS5003;72691;51.374;-0.176;2024-01-06T08:02:04;9;9;
82667;PMS5003;72691;51.374;-0.176;2024-01-06T08:04:30;7;6;
82667;PMS5003;72691;51.374;-0.176;2024-01-06T08:06:55;9;9;
82667;PMS5003;72691;51.374;-0.176;2024-01-06T08:09:21;8;7;
82667;PMS5003;72691;51.374;-0.176;2024-01-06T08:11:46;9;7;
82667;PMS5003;72691;51.374;-0.176;2024-01-06T08:14:11;7;7;
82667;PMS5003;72691;51.374;-0.176;2024-01-06T08:16:36;9;8;
82667;PMS5003;72691;51.374;-0.176;2024-01-06T08:19:02;12;12;
82667;PMS5003;72691;51.374;-0.176;2024-01-06T08:21:27;8;7;
82667;PMS5003;72691;51.374;-0.176;2024-01-06T08:23:52;8;7;
82667;PMS5003;72691;51.374;-0.176;2024-01-06T08:26:17;7;6;
82667;PMS5003;72691;51.374;-0.176;2024-01-06T08:28:43;6;6;
82667;PMS5003;72691;51.374;-0.176;2024-01-06T08:31:09;6;6;
82667;PMS5003;72691;51.374;-0.176;2024-01-06T08:33:34;7;7;
82667;PMS5003;72691;51.374;-0.176;2024-01-06T08:35:59;4;4;
82667;PMS5003;72691;51.374;-0.176;2024-01-06T08:38:25;7;6;
82667;PMS5003;72691;51.374;-0.176;2024-01-06T08:40:50;4;4;
82667;PMS5003;72691;51.374;-0.176;2024-01-06T08:43:16;4;4;
82667;PMS5003;72691;51.374;-0.176;2024-01-06T08:45:41;6;4;
82667;PMS5003;72691;51.374;-0.176;2024-01-06T08:48:07;6;4;
82667;PMS5003;72691;51.374;-0.176;2024-01-06T08:50:32;7;6;
82667;PMS5003;72691;51.374;-0.176;2024-01-06T08:52:57;6;4;
82667;PMS5003;72691;51.374;-0.176;2024-01-06T08:55:23;4;4;
82667;PMS5003;72691;51.374;-0.176;2024-01-06T08:57:48;3;3;
82667;PMS5003;72691;51.374;-0.176;2024-01-06T09:00:14;4;3;
82667;PMS5003;72691;51.374;-0.176;2024-01-06T09:02:39;4;4;
82667;PMS5003;72691;51.374;-0.176;2024-01-06T09:05:05;3;3;
82667;PMS5003;72691;51.374;-0.176;2024-01-06T09:07:30;3;2;
82667;PMS5003;72691;51.374;-0.176;2024-01-06T09:09:56;3;3;
82667;PMS5003;72691;51.374;-0.176;2024-01-06T09:12:21;3;3;
82667;PMS5003;72691;51.374;-0.176;2024-01-06T09:14:47;3;3;
82667;PMS5003;72691;51.374;-0.176;2024-01-06T09:17:12;3;3;
82667;PMS5003;72691;51.374;-0.176;2024-01-06T09:19:37;2;2;
82667;PMS5003;72691;51.374;-0.176;2024-01-06T09:22:03;2;2;
82667;PMS5003;72691;51.374;-0.176;2024-01-06T09:24:28;3;3;
82667;PMS5003;72691;51.374;-0.176;2024-01-06T09:26:54;3;3;
82667;PMS5003;72691;51.374;-0.176;2024-01-06T09:29:19;2;2;
82667;PMS5003;72691;51.374;-0.176;2024-01-06T09:31:46;4;4;
82667;PMS5003;72691;51.374;-0.176;2024-01-06T09:34:10;4;3;
82667;PMS5003;72691;51.374;-0.176;2024-01-06T09:36:36;3;3;
82667;PMS5003;72691;51.374;-0.176;2024-01-06T09:39:01;3;2;
82667;PMS5003;72691;51.374;-0.176;2024-01-06T09:41:32;4;4;
82667;PMS5003;72691;51.374;-0.176;2024-01-06T09:43:52;4;4;
82667;PMS5003;72691;51.374;-0.176;2024-01-06T09:46:25;3;3;
82667;PMS5003;72691;51.374;-0.176;2024-01-06T09:48:43;7;4;
82667;PMS5003;72691;51.374;-0.176;2024-01-06T09:51:09;4;4;
82667;PMS5003;72691;51.374;-0.176;2024-01-06T09:53:34;10;10;
82667;PMS5003;72691;51.374;-0.176;2024-01-06T09:55:59;6;6;
82667;PMS5003;72691;51.374;-0.176;2024-01-06T09:58:25;3;3;
82667;PMS5003;72691;51.374;-0.176;2024-01-06T10:00:50;4;4;
82667;PMS5003;72691;51.374;-0.176;2024-01-06T10:03:16;5;4;
82667;PMS5003;72691;51.374;-0.176;2024-01-06T10:05:41;3;3;
82667;PMS5003;72691;51.374;-0.176;2024-01-06T10:08:07;6;4;
82667;PMS5003;72691;51.374;-0.176;2024-01-06T10:10:33;3;3;
82667;PMS5003;72691;51.374;-0.176;2024-01-06T10:12:58;4;4;
82667;PMS5003;72691;51.374;-0.176;2024-01-06T10:15:23;6;6;
82667;PMS5003;72691;51.374;-0.176;2024-01-06T10:17:48;7;7;
82667;PMS5003;72691;51.374;-0.176;2024-01-06T10:20:14;4;4;
82667;PMS5003;72691;51.374;-0.176;2024-01-06T10:22:40;5;5;
82667;PMS5003;72691;51.374;-0.176;2024-01-06T10:25:05;5;5;
82667;PMS5003;72691;51.374;-0.176;2024-01-06T10:27:30;5;4;
82667;PMS5003;72691;51.374;-0.176;2024-01-06T10:29:56;4;4;
82667;PMS5003;72691;51.374;-0.176;2024-01-06T10:32:21;4;4;
82667;PMS5003;72691;51.374;-0.176;2024-01-06T10:34:46;6;6;
82667;PMS5003;72691;51.374;-0.176;2024-01-06T10:37:13;4;4;
82667;PMS5003;72691;51.374;-0.176;2024-01-06T10:39:37;5;5;
82667;PMS5003;72691;51.374;-0.176;2024-01-06T10:42:03;3;3;
82667;PMS5003;72691;51.374;-0.176;2024-01-06T10:44:28;4;4;
82667;PMS5003;72691;51.374;-0.176;2024-01-06T10:46:53;4;3;
82667;PMS5003;72691;51.374;-0.176;2024-01-06T10:49:19;3;3;
82667;PMS5003;72691;51.374;-0.176;2024-01-06T10:51:44;4;4;
82667;PMS5003;72691;51.374;-0.176;2024-01-06T10:54:10;2;2;
82667;PMS5003;72691;51.374;-0.176;2024-01-06T10:56:36;6;6;
82667;PMS5003;72691;51.374;-0.176;2024-01-06T10:59:01;4;4;
82667;PMS5003;72691;51.374;-0.176;2024-01-06T11:01:26;6;6;
82667;PMS5003;72691;51.374;-0.176;2024-01-06T11:03:52;13;13;
82667;PMS5003;72691;51.374;-0.176;2024-01-06T11:06:17;9;9;
82667;PMS5003;72691;51.374;-0.176;2024-01-06T11:08:46;7;7;
82667;PMS5003;72691;51.374;-0.176;2024-01-06T11:11:08;7;6;
82667;PMS5003;72691;51.374;-0.176;2024-01-06T11:13:33;8;8;
82667;PMS5003;72691;51.374;-0.176;2024-01-06T11:15:59;4;4;
82667;PMS5003;72691;51.374;-0.176;2024-01-06T11:18:31;4;4;
82667;PMS5003;72691;51.374;-0.176;2024-01-06T11:23:17;7;7;
82667;PMS5003;72691;51.374;-0.176;2024-01-06T11:25:41;4;4;
82667;PMS5003;72691;51.374;-0.176;2024-01-06T11:28:07;4;4;
82667;PMS5003;72691;51.374;-0.176;2024-01-06T11:30:31;3;3;
82667;PMS5003;72691;51.374;-0.176;2024-01-06T11:32:57;6;6;
82667;PMS5003;72691;51.374;-0.176;2024-01-06T11:35:22;3;3;
82667;PMS5003;72691;51.374;-0.176;2024-01-06T11:37:52;6;4;
82667;PMS5003;72691;51.374;-0.176;2024-01-06T11:40:15;5;4;
82667;PMS5003;72691;51.374;-0.176;2024-01-06T11:42:41;4;3;
82667;PMS5003;72691;51.374;-0.176;2024-01-06T11:45:04;2;2;
82667;PMS5003;72691;51.374;-0.176;2024-01-06T11:47:29;4;3;
82667;PMS5003;72691;51.374;-0.176;2024-01-06T11:49:55;3;3;
82667;PMS5003;72691;51.374;-0.176;2024-01-06T11:52:21;3;3;
82667;PMS5003;72691;51.374;-0.176;2024-01-06T11:54:46;3;3;
82667;PMS5003;72691;51.374;-0.176;2024-01-06T11:57:11;3;3;
82667;PMS5003;72691;51.374;-0.176;2024-01-06T11:59:37;2;2;
82667;PMS5003;72691;51.374;-0.176;2024-01-06T12:02:02;1;1;
82667;PMS5003;72691;51.374;-0.176;2024-01-06T12:04:27;4;3;
82667;PMS5003;72691;51.374;-0.176;2024-01-06T12:06:53;1;1;
82667;PMS5003;72691;51.374;-0.176;2024-01-06T12:09:18;1;1;
82667;PMS5003;72691;51.374;-0.176;2024-01-06T12:11:44;1;1;
82667;PMS5003;72691;51.374;-0.176;2024-01-06T12:14:09;1;1;
82667;PMS5003;72691;51.374;-0.176;2024-01-06T12:16:35;1;1;
82667;PMS5003;72691;51.374;-0.176;2024-01-06T12:19:00;2;2;
82667;PMS5003;72691;51.374;-0.176;2024-01-06T12:21:26;1;1;
82667;PMS5003;72691;51.374;-0.176;2024-01-06T12:23:51;3;3;
82667;PMS5003;72691;51.374;-0.176;2024-01-06T12:26:18;2;2;
82667;PMS5003;72691;51.374;-0.176;2024-01-06T12:28:44;4;4;
82667;PMS5003;72691;51.374;-0.176;2024-01-06T12:31:09;4;4;
82667;PMS5003;72691;51.374;-0.176;2024-01-06T12:33:33;4;4;
82667;PMS5003;72691;51.374;-0.176;2024-01-06T12:35:58;8;8;
82667;PMS5003;72691;51.374;-0.176;2024-01-06T12:38:24;10;8;
82667;PMS5003;72691;51.374;-0.176;2024-01-06T12:40:50;2;2;
82667;PMS5003;72691;51.374;-0.176;2024-01-06T12:43:15;6;4;
82667;PMS5003;72691;51.374;-0.176;2024-01-06T12:45:40;6;6;
82667;PMS5003;72691;51.374;-0.176;2024-01-06T12:48:06;6;6;
82667;PMS5003;72691;51.374;-0.176;2024-01-06T12:50:31;7;7;
82667;PMS5003;72691;51.374;-0.176;2024-01-06T12:52:57;5;5;
82667;PMS5003;72691;51.374;-0.176;2024-01-06T12:55:22;2;2;
82667;PMS5003;72691;51.374;-0.176;2024-01-06T12:57:47;4;3;
82667;PMS5003;72691;51.374;-0.176;2024-01-06T13:00:13;2;2;
82667;PMS5003;72691;51.374;-0.176;2024-01-06T13:02:39;2;2;
82667;PMS5003;72691;51.374;-0.176;2024-01-06T13:05:04;5;4;
82667;PMS5003;72691;51.374;-0.176;2024-01-06T13:07:29;7;5;
82667;PMS5003;72691;51.374;-0.176;2024-01-06T13:09:55;6;6;
82667;PMS5003;72691;51.374;-0.176;2024-01-06T13:12:20;6;6;
82667;PMS5003;72691;51.374;-0.176;2024-01-06T13:14:47;4;4;
82667;PMS5003;72691;51.374;-0.176;2024-01-06T13:17:11;6;6;
82667;PMS5003;72691;51.374;-0.176;2024-01-06T13:19:37;6;6;
82667;PMS5003;72691;51.374;-0.176;2024-01-06T13:22:02;7;7;
82667;PMS5003;72691;51.374;-0.176;2024-01-06T13:24:28;5;5;
82667;PMS5003;72691;51.374;-0.176;2024-01-06T13:26:53;4;4;
82667;PMS5003;72691;51.374;-0.176;2024-01-06T13:29:19;7;7;
82667;PMS5003;72691;51.374;-0.176;2024-01-06T13:31:44;8;7;
82667;PMS5003;72691;51.374;-0.176;2024-01-06T13:34:09;10;9;
82667;PMS5003;72691;51.374;-0.176;2024-01-06T13:36:34;8;8;
82667;PMS5003;72691;51.374;-0.176;2024-01-06T13:39:00;8;8;
82667;PMS5003;72691;51.374;-0.176;2024-01-06T13:41:25;9;9;
82667;PMS5003;72691;51.374;-0.176;2024-01-06T13:43:51;7;7;
82667;PMS5003;72691;51.374;-0.176;2024-01-06T13:46:18;8;8;
82667;PMS5003;72691;51.374;-0.176;2024-01-06T13:48:42;13;13;
82667;PMS5003;72691;51.374;-0.176;2024-01-06T13:51:07;9;9;
82667;PMS5003;72691;51.374;-0.176;2024-01-06T13:53:33;11;10;
82667;PMS5003;72691;51.374;-0.176;2024-01-06T13:55:58;11;10;
82667;PMS5003;72691;51.374;-0.176;2024-01-06T13:58:24;10;9;
82667;PMS5003;72691;51.374;-0.176;2024-01-06T14:00:49;11;10;
82667;PMS5003;72691;51.374;-0.176;2024-01-06T14:03:14;10;10;
82667;PMS5003;72691;51.374;-0.176;2024-01-06T14:05:40;11;11;
82667;PMS5003;72691;51.374;-0.176;2024-01-06T14:08:06;8;8;
82667;PMS5003;72691;51.374;-0.176;2024-01-06T14:10:31;10;10;
82667;PMS5003;72691;51.374;-0.176;2024-01-06T14:12:56;10;9;
82667;PMS5003;72691;51.374;-0.176;2024-01-06T14:15:21;10;9;
82667;PMS5003;72691;51.374;-0.176;2024-01-06T14:17:47;14;10;
82667;PMS5003;72691;51.374;-0.176;2024-01-06T14:20:12;7;7;
82667;PMS5003;72691;51.374;-0.176;2024-01-06T14:22:38;5;5;
82667;PMS5003;72691;51.374;-0.176;2024-01-06T14:25:03;10;9;
82667;PMS5003;72691;51.374;-0.176;2024-01-06T14:27:29;9;9;
82667;PMS5003;72691;51.374;-0.176;2024-01-06T14:29:54;8;8;
82667;PMS5003;72691;51.374;-0.176;2024-01-06T14:32:19;8;8;
82667;PMS5003;72691;51.374;-0.176;2024-01-06T14:34:45;8;8;
82667;PMS5003;72691;51.374;-0.176;2024-01-06T14:37:10;8;8;
82667;PMS5003;72691;51.374;-0.176;2024-01-06T14:39:36;14;11;
82667;PMS5003;72691;51.374;-0.176;2024-01-06T14:42:01;8;8;
82667;PMS5003;72691;51.374;-0.176;2024-01-06T14:44:27;8;8;
82667;PMS5003;72691;51.374;-0.176;2024-01-06T14:46:52;8;7;
82667;PMS5003;72691;51.374;-0.176;2024-01-06T14:49:18;9;9;
82667;PMS5003;72691;51.374;-0.176;2024-01-06T14:51:43;8;6;
82667;PMS5003;72691;51.374;-0.176;2024-01-06T14:54:09;11;9;
82667;PMS5003;72691;51.374;-0.176;2024-01-06T14:56:37;7;7;
82667;PMS5003;72691;51.374;-0.176;2024-01-06T14:59:00;7;7;
82667;PMS5003;72691;51.374;-0.176;2024-01-06T15:01:25;9;8;
82667;PMS5003;72691;51.374;-0.176;2024-01-06T15:03:51;9;9;
82667;PMS5003;72691;51.374;-0.176;2024-01-06T15:06:16;14;13;
82667;PMS5003;72691;51.374;-0.176;2024-01-06T15:08:42;10;9;
82667;PMS5003;72691;51.374;-0.176;2024-01-06T15:11:07;13;11;
82667;PMS5003;72691;51.374;-0.176;2024-01-06T15:13:32;10;10;
82667;PMS5003;72691;51.374;-0.176;2024-01-06T15:15:58;7;7;
82667;PMS5003;72691;51.374;-0.176;2024-01-06T15:18:23;13;9;
82667;PMS5003;72691;51.374;-0.176;2024-01-06T15:20:49;11;10;
82667;PMS5003;72691;51.374;-0.176;2024-01-06T15:23:14;9;9;
82667;PMS5003;72691;51.374;-0.176;2024-01-06T15:25:40;8;8;
82667;PMS5003;72691;51.374;-0.176;2024-01-06T15:28:05;10;10;
82667;PMS5003;72691;51.374;-0.176;2024-01-06T15:30:30;8;8;
82667;PMS5003;72691;51.374;-0.176;2024-01-06T15:32:56;10;10;
82667;PMS5003;72691;51.374;-0.176;2024-01-06T15:35:21;8;7;
82667;PMS5003;72691;51.374;-0.176;2024-01-06T15:37:47;9;9;
82667;PMS5003;72691;51.374;-0.176;2024-01-06T15:40:12;8;8;
82667;PMS5003;72691;51.374;-0.176;2024-01-06T15:42:38;8;7;
82667;PMS5003;72691;51.374;-0.176;2024-01-06T15:45:03;7;7;
82667;PMS5003;72691;51.374;-0.176;2024-01-06T15:47:28;7;7;
82667;PMS5003;72691;51.374;-0.176;2024-01-06T15:49:54;9;9;
82667;PMS5003;72691;51.374;-0.176;2024-01-06T15:52:19;7;7;
82667;PMS5003;72691;51.374;-0.176;2024-01-06T15:54:45;7;7;
82667;PMS5003;72691;51.374;-0.176;2024-01-06T15:57:10;8;8;
82667;PMS5003;72691;51.374;-0.176;2024-01-06T15:59:35;8;8;
82667;PMS5003;72691;51.374;-0.176;2024-01-06T16:02:01;8;8;
82667;PMS5003;72691;51.374;-0.176;2024-01-06T16:04:26;7;7;
82667;PMS5003;72691;51.374;-0.176;2024-01-06T16:06:51;7;5;
82667;PMS5003;72691;51.374;-0.176;2024-01-06T16:09:17;7;7;
82667;PMS5003;72691;51.374;-0.176;2024-01-06T16:11:42;7;6;